Time;durP1;ratioP1;P1;durP2;ratioP2;P2;SDS_P1;SDS_P2;PMS_P1;PMS_P2;Temp;Humidity;BMP_temperature;BMP_pressure;BME280_temperature;BME280_humidity;BME280_pressure;Samples;Min_cycle;Max_cycle;Signal;HPM_P1;HPM_P2
2023/01/13 00:01:11;;;;;;;3.15;0.38;;;10.80;99.90;;;;;;5010235;28;20548;-74
2023/01/13 00:03:37;;;;;;;0.47;0.43;;;10.80;99.90;;;;;;5023527;28;20064;-74
2023/01/13 00:06:04;;;;;;;3.25;0.98;;;10.80;99.90;;;;;;5017175;28;20371;-74
2023/01/13 00:08:31;;;;;;;1.45;0.20;;;10.80;99.90;;;;;;5009386;28;20121;-74
2023/01/13 00:10:57;;;;;;;0.40;0.10;;;10.80;99.90;;;;;;5016887;28;20406;-74
2023/01/13 00:13:25;;;;;;;1.40;0.50;;;10.80;99.90;;;;;;5023741;28;20034;-74
2023/01/13 00:16:07;;;;;;;1.52;0.25;;;10.80;99.90;;;;;;5010191;28;20029;-74
2023/01/13 00:18:35;;;;;;;3.38;0.30;;;10.80;99.90;;;;;;5023229;28;20116;-74
2023/01/13 00:21:10;;;;;;;2.10;0.70;;;10.80;99.90;;;;;;5012957;28;20660;-74
2023/01/13 00:23:36;;;;;;;0.68;0.13;;;10.80;99.90;;;;;;5026835;28;20116;-75
2023/01/13 00:26:17;;;;;;;6.70;0.40;;;10.80;99.90;;;;;;5020457;28;20109;-74
2023/01/13 00:28:43;;;;;;;1.48;0.38;;;10.80;99.90;;;;;;5012990;28;20512;-74
2023/01/13 00:31:13;;;;;;;0.25;0.25;;;10.80;99.90;;;;;;5020368;28;20042;-74
2023/01/13 00:33:39;;;;;;;2.10;0.10;;;10.80;99.90;;;;;;5026598;28;20560;-74
2023/01/13 00:36:07;;;;;;;2.03;0.32;;;10.80;99.90;;;;;;5013439;28;20033;-74
2023/01/13 00:38:34;;;;;;;0.10;0.10;;;10.80;99.90;;;;;;5012916;28;20115;-75
2023/01/13 00:41:05;;;;;;;0.88;0.52;;;10.80;99.90;;;;;;5020209;28;20485;-74
2023/01/13 00:43:32;;;;;;;2.53;0.67;;;10.80;99.90;;;;;;5026580;28;20490;-74
2023/01/13 00:45:59;;;;;;;3.58;0.60;;;10.70;99.90;;;;;;5013004;28;20285;-74
2023/01/13 00:48:26;;;;;;;0.20;0.20;;;10.80;99.90;;;;;;5010117;28;20113;-74
2023/01/13 00:51:11;;;;;;;0.70;0.30;;;10.70;99.90;;;;;;5019000;28;20030;-74
2023/01/13 00:53:43;;;;;;;0.20;0.20;;;10.70;99.90;;;;;;5026663;28;20061;-75
2023/01/13 00:56:23;;;;;;;1.27;0.40;;;10.70;99.90;;;;;;5019652;28;20030;-75
2023/01/13 00:58:50;;;;;;;0.40;0.20;;;10.70;99.90;;;;;;5012511;28;20486;-74
2023/01/13 01:01:21;;;;;;;0.50;0.40;;;10.70;99.90;;;;;;4995580;28;20370;-74
2023/01/13 01:03:52;;;;;;;1.45;0.57;;;10.70;99.90;;;;;;5012375;28;20552;-74
2023/01/13 01:06:24;;;;;;;2.95;0.38;;;10.70;99.90;;;;;;5012262;28;20038;-75
2023/01/13 01:08:51;;;;;;;0.03;0.03;;;10.80;99.90;;;;;;5012494;28;20037;-75
2023/01/13 01:11:24;;;;;;;0.13;0.10;;;10.70;99.90;;;;;;5004882;28;20429;-75
2023/01/13 01:13:51;;;;;;;6.50;1.35;;;10.70;99.90;;;;;;5009482;28;20037;-74
2023/01/13 01:16:20;;;;;;;1.05;0.40;;;10.70;99.90;;;;;;5012512;28;20030;-74
2023/01/13 01:18:48;;;;;;;0.10;0.10;;;10.70;99.90;;;;;;5026065;28;20492;-74
2023/01/13 01:21:14;;;;;;;0.88;0.40;;;10.70;99.90;;;;;;5019134;28;20044;-74
2023/01/13 01:23:40;;;;;;;0.25;0.20;;;10.70;99.90;;;;;;5026167;28;20037;-74
2023/01/13 01:26:16;;;;;;;1.88;0.45;;;10.60;99.90;;;;;;5019507;28;20030;-74
2023/01/13 01:28:42;;;;;;;0.90;0.30;;;10.50;99.90;;;;;;5011927;28;20034;-75
2023/01/13 01:31:21;;;;;;;0.32;0.20;;;10.60;99.90;;;;;;5011785;28;20036;-73
2023/01/13 01:33:48;;;;;;;1.05;0.60;;;10.60;99.90;;;;;;5031985;23;20144;-77
2023/01/13 01:36:17;;;;;;;0.20;0.13;;;10.60;99.90;;;;;;5011780;28;20394;-77
2023/01/13 01:38:43;;;;;;;0.15;0.10;;;10.60;99.90;;;;;;5005650;28;20065;-77
2023/01/13 01:41:22;;;;;;;4.82;1.65;;;10.60;99.90;;;;;;5002759;28;20033;-77
2023/01/13 01:43:58;;;;;;;0.65;0.10;;;10.50;99.90;;;;;;4992855;28;20410;-77
2023/01/13 01:46:44;;;;;;;1.75;0.28;;;10.50;99.90;;;;;;4985427;28;20045;-77
2023/01/13 01:49:29;;;;;;;0.10;0.10;;;10.60;99.90;;;;;;4991517;28;20455;-77
2023/01/13 01:52:11;;;;;;;0.65;0.30;;;10.50;99.90;;;;;;5004367;28;20479;-77
2023/01/13 01:54:55;;;;;;;0.40;0.25;;;10.50;99.90;;;;;;4998925;28;20046;-77
2023/01/13 01:58:02;;;;;;;2.40;0.40;;;10.50;99.90;;;;;;4972932;28;20483;-77
2023/01/13 02:00:28;;;;;;;1.05;0.25;;;10.50;99.90;;;;;;4985950;28;20035;-77
2023/01/13 02:02:56;;;;;;;0.65;0.40;;;10.50;99.90;;;;;;4991344;28;20105;-77
2023/01/13 02:05:22;;;;;;;0.52;0.22;;;10.40;99.90;;;;;;4987411;28;20129;-77
2023/01/13 02:07:53;;;;;;;0.22;0.22;;;10.40;99.90;;;;;;4978884;28;20029;-77
2023/01/13 02:10:24;;;;;;;0.47;0.10;;;10.40;99.90;;;;;;4989731;28;20033;-77
2023/01/13 02:12:51;;;;;;;;;;;10.40;99.90;;;;;;4991961;28;20042;-77
2023/01/13 02:15:44;;;;;;;1.00;0.13;;;10.40;99.90;;;;;;4988919;28;20401;-77
2023/01/13 02:18:35;;;;;;;3.10;1.00;;;10.40;99.90;;;;;;4950937;28;20042;-77
2023/01/13 02:21:19;;;;;;;0.80;0.43;;;10.40;99.90;;;;;;4997728;28;20046;-77
2023/01/13 02:27:14;;;;;;;0.45;0.17;;;10.40;99.90;;;;;;4986377;28;20042;-77
2023/01/13 02:33:02;;;;;;;0.22;0.20;;;10.40;99.90;;;;;;4973650;28;20038;-77
2023/01/13 02:36:23;;;;;;;4.45;0.45;;;10.40;99.90;;;;;;4957802;28;20130;-77
2023/01/13 02:39:06;;;;;;;1.45;0.17;;;10.40;99.90;;;;;;4989821;28;20049;-77
2023/01/13 02:44:30;;;;;;;1.45;0.60;;;10.30;99.90;;;;;;4994284;28;20517;-77
2023/01/13 02:47:04;;;;;;;1.75;0.60;;;10.20;99.90;;;;;;4986411;28;20037;-77
2023/01/13 02:49:46;;;;;;;0.45;0.45;;;10.20;99.90;;;;;;4990183;28;20031;-77
2023/01/13 02:52:30;;;;;;;0.10;0.05;;;10.10;99.90;;;;;;4990519;28;20027;-77
2023/01/13 02:55:10;;;;;;;0.75;0.30;;;10.20;99.90;;;;;;4994801;28;20395;-77
2023/01/13 02:57:38;;;;;;;3.30;0.80;;;10.20;99.90;;;;;;4988261;28;20085;-77
2023/01/13 03:00:09;;;;;;;0.45;0.20;;;10.20;99.90;;;;;;4990497;28;20117;-77
2023/01/13 03:02:35;;;;;;;0.77;0.40;;;10.20;99.90;;;;;;4988412;28;20026;-77
2023/01/13 03:05:00;;;;;;;0.25;0.25;;;10.20;99.90;;;;;;4981106;28;20556;-77
2023/01/13 03:08:19;;;;;;;0.22;0.13;;;10.30;99.90;;;;;;4989543;28;20038;-77
2023/01/13 03:11:10;;;;;;;0.93;0.03;;;10.30;99.90;;;;;;4986364;28;20498;-75
2023/01/13 03:14:09;;;;;;;1.27;0.30;;;10.30;99.90;;;;;;4990519;28;20049;-76
2023/01/13 03:17:10;;;;;;;0.52;0.43;;;10.30;99.90;;;;;;4989728;28;20500;-75
2023/01/13 03:20:09;;;;;;;0.38;0.28;;;10.30;99.90;;;;;;4989283;28;20121;-77
2023/01/13 03:23:05;;;;;;;1.25;0.30;;;10.40;99.90;;;;;;4972888;28;20096;-76
2023/01/13 03:25:41;;;;;;;2.67;0.28;;;10.40;99.90;;;;;;4983004;28;20030;-77
2023/01/13 03:28:22;;;;;;;0.47;0.10;;;10.40;99.90;;;;;;4989062;28;20054;-76
2023/01/13 03:30:55;;;;;;;0.20;0.20;;;10.40;99.90;;;;;;4996609;28;20398;-77
2023/01/13 03:33:35;;;;;;;0.30;0.30;;;10.40;99.90;;;;;;4964095;28;1037408;-77
2023/01/13 03:36:09;;;;;;;1.45;0.47;;;10.40;99.90;;;;;;4997394;28;20031;-76
2023/01/13 03:38:39;;;;;;;1.75;0.40;;;10.40;99.90;;;;;;4990266;28;20658;-76
2023/01/13 03:41:12;;;;;;;1.08;0.20;;;10.40;99.90;;;;;;4997057;28;20038;-76
2023/01/13 03:46:49;;;;;;;2.40;0.40;;;10.30;99.90;;;;;;4984796;28;20030;-76
2023/01/13 03:49:21;;;;;;;0.75;0.30;;;10.30;99.90;;;;;;4999875;28;20197;-76
2023/01/13 03:51:52;;;;;;;1.17;0.17;;;10.30;99.90;;;;;;5001708;28;20043;-77
2023/01/13 03:54:21;;;;;;;2.67;0.60;;;10.20;99.90;;;;;;5000335;28;20027;-76
2023/01/13 03:56:55;;;;;;;0.30;0.20;;;10.20;99.90;;;;;;4994374;28;20486;-76
2023/01/13 03:59:30;;;;;;;0.55;0.22;;;10.20;99.90;;;;;;5003177;28;20042;-76
2023/01/13 04:02:31;;;;;;;1.27;0.40;;;10.20;99.90;;;;;;5006542;28;20049;-76
2023/01/13 04:05:01;;;;;;;1.83;0.57;;;10.20;99.90;;;;;;4991680;28;20122;-76
2023/01/13 04:08:11;;;;;;;0.52;0.38;;;10.20;99.90;;;;;;5008230;28;20062;-76
2023/01/13 04:11:01;;;;;;;0.47;0.20;;;10.20;99.90;;;;;;4989002;28;20065;-76
2023/01/13 04:13:33;;;;;;;2.88;0.45;;;10.20;99.90;;;;;;4993157;28;20049;-76
2023/01/13 04:16:00;;;;;;;1.13;0.20;;;10.30;99.90;;;;;;4989821;28;20033;-76
2023/01/13 04:18:30;;;;;;;0.17;0.13;;;10.30;99.90;;;;;;4993255;28;20364;-76
2023/01/13 04:21:00;;;;;;;0.10;0.10;;;10.30;99.90;;;;;;4994000;28;20026;-77
2023/01/13 04:23:27;;;;;;;0.45;0.25;;;10.40;99.90;;;;;;4999836;28;20042;-76
2023/01/13 04:25:54;;;;;;;0.10;0.10;;;10.40;99.90;;;;;;5000614;28;20031;-76
2023/01/13 04:28:20;;;;;;;0.30;0.15;;;10.40;99.90;;;;;;5003205;28;20030;-76
2023/01/13 04:30:47;;;;;;;0.30;0.30;;;10.50;99.90;;;;;;4993946;28;20601;-76
2023/01/13 04:33:14;;;;;;;2.47;0.30;;;10.50;99.90;;;;;;4992694;28;20045;-77
2023/01/13 04:35:41;;;;;;;0.98;0.60;;;10.50;99.90;;;;;;5000524;28;20030;-77
2023/01/13 04:38:11;;;;;;;0.63;0.28;;;10.50;99.90;;;;;;5003160;28;20041;-77
2023/01/13 04:40:38;;;;;;;1.35;0.57;;;10.50;99.90;;;;;;5000390;28;20173;-77
2023/01/13 04:43:04;;;;;;;1.88;0.43;;;10.50;99.90;;;;;;5005309;28;20018;-77
2023/01/13 04:45:31;;;;;;;0.20;0.20;;;10.50;99.90;;;;;;4993674;28;20030;-77
2023/01/13 04:47:56;;;;;;;0.50;0.10;;;10.60;99.90;;;;;;4987879;28;20027;-77
2023/01/13 04:50:22;;;;;;;1.23;0.15;;;10.60;99.90;;;;;;4986286;28;20509;-77
2023/01/13 04:52:52;;;;;;;1.25;0.30;;;10.70;99.90;;;;;;4971713;28;20035;-77
2023/01/13 04:55:20;;;;;;;1.20;0.30;;;10.70;99.90;;;;;;4985854;28;20105;-77
2023/01/13 04:57:46;;;;;;;0.22;0.10;;;10.70;99.90;;;;;;4991079;28;20129;-77
2023/01/13 05:00:15;;;;;;;1.98;0.60;;;10.70;99.90;;;;;;4983723;28;20514;-77
2023/01/13 05:02:41;;;;;;;0.30;0.20;;;10.70;99.90;;;;;;4992289;28;20031;-77
2023/01/13 05:05:07;;;;;;;5.25;0.32;;;10.70;99.90;;;;;;4993163;28;20042;-76
2023/01/13 05:07:33;;;;;;;1.20;0.22;;;10.70;99.90;;;;;;4991115;28;20154;-77
2023/01/13 05:09:58;;;;;;;0.30;0.20;;;10.80;99.90;;;;;;4993096;28;20054;-77
2023/01/13 05:17:57;;;;;;;0.20;0.20;;;10.80;99.90;;;;;;4991885;28;20474;-77
2023/01/13 05:20:24;;;;;;;0.32;0.17;;;10.70;99.90;;;;;;5000034;28;20041;-77
2023/01/13 05:25:38;;;;;;;0.43;0.15;;;10.80;99.90;;;;;;4993027;28;20471;-77
2023/01/13 05:28:05;;;;;;;0.57;0.40;;;10.80;99.90;;;;;;4988860;28;20069;-77
2023/01/13 05:30:36;;;;;;;3.63;0.25;;;10.80;99.90;;;;;;4983369;28;20034;-77
2023/01/13 05:33:03;;;;;;;0.43;0.22;;;10.80;99.90;;;;;;5002050;28;20399;-77
2023/01/13 05:35:28;;;;;;;0.20;0.15;;;10.80;99.90;;;;;;4999571;28;20026;-77
2023/01/13 05:37:55;;;;;;;0.98;0.22;;;10.80;99.90;;;;;;4994924;28;20038;-77
2023/01/13 05:43:20;;;;;;;0.22;0.10;;;10.80;99.90;;;;;;5003432;28;20034;-77
2023/01/13 05:46:04;;;;;;;4.28;0.40;;;10.70;99.90;;;;;;4992541;28;20049;-77
2023/01/13 05:48:35;;;;;;;1.58;0.38;;;10.80;99.90;;;;;;4989932;28;20068;-73
2023/01/13 05:51:04;;;;;;;4.13;0.77;;;10.80;99.90;;;;;;4996189;28;20022;-73
2023/01/13 05:53:31;;;;;;;0.20;0.20;;;10.80;99.90;;;;;;4997250;28;20035;-73
2023/01/13 05:55:57;;;;;;;0.05;0.00;;;10.80;99.90;;;;;;4995991;28;20134;-73
2023/01/13 05:58:25;;;;;;;0.43;0.20;;;10.80;99.90;;;;;;5000427;28;20109;-72
2023/01/13 06:00:51;;;;;;;0.10;0.10;;;10.70;99.90;;;;;;4992208;28;20065;-72
2023/01/13 06:03:22;;;;;;;0.10;0.10;;;10.70;99.90;;;;;;4992619;28;20066;-75
2023/01/13 06:05:50;;;;;;;3.72;0.35;;;10.80;99.90;;;;;;4992240;28;20034;-73
2023/01/13 06:08:17;;;;;;;1.10;0.28;;;10.70;99.90;;;;;;4991168;28;20049;-71
2023/01/13 06:10:43;;;;;;;0.10;0.03;;;10.70;99.90;;;;;;4982666;28;20030;-71
2023/01/13 06:13:09;;;;;;;0.70;0.40;;;10.60;99.90;;;;;;4992972;28;20034;-71
2023/01/13 06:15:35;;;;;;;3.92;0.28;;;10.60;99.90;;;;;;4981475;28;20035;-73
2023/01/13 06:18:04;;;;;;;0.25;0.20;;;10.50;99.90;;;;;;4956418;28;20150;-73
2023/01/13 06:20:30;;;;;;;5.25;0.30;;;10.30;99.90;;;;;;4986212;28;20073;-69
2023/01/13 06:22:57;;;;;;;4.00;0.60;;;10.20;99.90;;;;;;4990961;28;20080;-70
2023/01/13 06:26:01;;;;;;;1.55;0.45;;;10.10;99.90;;;;;;4998410;28;20026;-71
2023/01/13 06:28:26;;;;;;;0.13;0.13;;;10.00;99.90;;;;;;4990516;28;20085;-71
2023/01/13 06:30:58;;;;;;;0.10;0.10;;;10.00;99.90;;;;;;4991323;28;20026;-71
2023/01/13 06:33:32;;;;;;;0.00;0.00;;;10.10;99.90;;;;;;5001274;28;20030;-72
2023/01/13 06:36:04;;;;;;;3.15;0.88;;;10.10;99.90;;;;;;4991692;28;20026;-72
2023/01/13 06:38:36;;;;;;;1.27;0.65;;;10.00;99.90;;;;;;4990641;28;20088;-72
2023/01/13 06:41:02;;;;;;;;;;;10.10;99.90;;;;;;4991855;28;20076;-73
2023/01/13 06:43:28;;;;;;;0.60;0.28;;;10.10;99.90;;;;;;4984789;28;19924;-73
2023/01/13 06:45:55;;;;;;;0.65;0.20;;;10.10;99.90;;;;;;4998665;28;20023;-71
2023/01/13 06:48:31;;;;;;;0.93;0.38;;;10.10;99.90;;;;;;5001063;28;20489;-69
2023/01/13 06:50:58;;;;;;;0.73;0.40;;;9.90;99.90;;;;;;4991461;28;20030;-72
2023/01/13 06:53:24;;;;;;;0.35;0.20;;;9.70;99.90;;;;;;4991028;28;20037;-76
2023/01/13 06:55:49;;;;;;;16.33;0.73;;;9.70;99.90;;;;;;4988722;28;20026;-70
2023/01/13 06:58:15;;;;;;;0.20;0.10;;;9.50;99.90;;;;;;4982674;28;20042;-69
2023/01/13 07:00:41;;;;;;;0.00;0.00;;;9.40;99.90;;;;;;4957641;28;20092;-70
2023/01/13 07:03:11;;;;;;;0.00;0.00;;;9.30;99.90;;;;;;4987914;28;20293;-71
2023/01/13 07:05:39;;;;;;;0.47;0.38;;;9.30;99.90;;;;;;4990866;28;20482;-71
2023/01/13 07:08:06;;;;;;;2.63;0.40;;;9.40;99.90;;;;;;4989504;28;20042;-69
2023/01/13 07:10:32;;;;;;;0.43;0.10;;;9.30;99.90;;;;;;4993700;28;20061;-74
2023/01/13 07:15:59;;;;;;;0.32;0.32;;;9.40;99.90;;;;;;4989722;28;20509;-68
2023/01/13 07:18:27;;;;;;;0.47;0.22;;;9.40;99.90;;;;;;4990955;28;20030;-69
2023/01/13 07:20:55;;;;;;;0.00;0.00;;;9.50;99.90;;;;;;4992591;28;20029;-70
2023/01/13 07:23:21;;;;;;;0.20;0.15;;;9.60;99.90;;;;;;4989591;28;20042;-72
2023/01/13 07:25:47;;;;;;;0.00;0.00;;;9.60;99.90;;;;;;4992504;28;20043;-71
2023/01/13 07:28:13;;;;;;;0.00;0.00;;;9.60;99.90;;;;;;4993770;28;20546;-74
2023/01/13 07:30:39;;;;;;;0.35;0.20;;;9.60;99.90;;;;;;4993739;28;20414;-70
2023/01/13 07:33:05;;;;;;;0.75;0.10;;;9.60;99.90;;;;;;5006087;23;20039;-77
2023/01/13 07:35:30;;;;;;;0.43;0.20;;;9.70;99.90;;;;;;4992018;28;20489;-77
2023/01/13 07:37:56;;;;;;;1.27;0.10;;;9.60;99.90;;;;;;4993433;28;20065;-78
2023/01/13 07:40:21;;;;;;;0.80;0.63;;;9.60;99.90;;;;;;4994029;28;20034;-77
2023/01/13 07:45:31;;;;;;;0.22;0.10;;;9.70;99.90;;;;;;4969182;28;20027;-76
2023/01/13 07:47:57;;;;;;;2.15;0.25;;;9.70;99.90;;;;;;4974325;28;20037;-77
2023/01/13 07:50:23;;;;;;;0.32;0.20;;;9.60;99.90;;;;;;4975002;28;20038;-77
2023/01/13 07:52:50;;;;;;;0.47;0.20;;;9.70;99.90;;;;;;4974463;28;20027;-76
2023/01/13 07:55:15;;;;;;;0.93;0.90;;;9.70;99.90;;;;;;4966929;28;20026;-77
2023/01/13 07:57:41;;;;;;;0.10;0.10;;;9.70;99.90;;;;;;4974149;28;20380;-78
2023/01/13 08:00:08;;;;;;;4.05;0.15;;;9.50;99.90;;;;;;4974786;28;20034;-79
2023/01/13 08:02:34;;;;;;;0.00;0.00;;;9.40;99.90;;;;;;4985583;28;20062;-77
2023/01/13 08:04:59;;;;;;;3.53;0.40;;;9.40;99.90;;;;;;4974270;28;20066;-76
2023/01/13 08:07:25;;;;;;;3.50;0.47;;;9.30;99.90;;;;;;4957417;28;20034;-77
2023/01/13 08:09:51;;;;;;;0.00;0.00;;;9.30;99.90;;;;;;4973942;28;20494;-77
2023/01/13 08:15:01;;;;;;;3.20;0.40;;;9.30;99.90;;;;;;4974299;28;20415;-78
2023/01/13 08:17:26;;;;;;;7.35;0.25;;;9.30;99.90;;;;;;4974461;28;20042;-77
2023/01/13 08:19:52;;;;;;;4.10;0.17;;;9.20;99.90;;;;;;4956537;28;20169;-81
2023/01/13 08:22:18;;;;;;;0.38;0.38;;;9.30;99.90;;;;;;4974435;28;20486;-78
2023/01/13 08:24:43;;;;;;;0.38;0.17;;;9.30;99.90;;;;;;4973695;28;20034;-78
2023/01/13 08:27:09;;;;;;;0.45;0.28;;;9.30;99.90;;;;;;4973933;28;20479;-78
2023/01/13 08:29:35;;;;;;;0.43;0.25;;;9.30;99.90;;;;;;4956675;28;20430;-78
2023/01/13 08:32:01;;;;;;;0.05;0.00;;;9.30;99.90;;;;;;4974280;28;20130;-77
2023/01/13 08:34:26;;;;;;;1.77;0.68;;;9.30;99.90;;;;;;4973478;28;20126;-72
2023/01/13 08:36:52;;;;;;;0.40;0.10;;;9.40;99.90;;;;;;4974027;28;20033;-75
2023/01/13 08:39:18;;;;;;;1.13;0.30;;;9.40;99.90;;;;;;4973494;28;20445;-79
2023/01/13 08:41:57;;;;;;;0.85;0.22;;;9.50;99.90;;;;;;4974455;28;20030;-77
2023/01/13 08:44:26;;;;;;;0.95;0.38;;;9.50;99.90;;;;;;4954063;28;20034;-77
2023/01/13 08:46:53;;;;;;;0.10;0.10;;;9.60;99.90;;;;;;4973805;28;20114;-76
2023/01/13 08:49:19;;;;;;;3.53;0.30;;;9.60;99.90;;;;;;4973051;28;20045;-76
2023/01/13 08:51:45;;;;;;;0.05;0.05;;;9.60;99.90;;;;;;4973143;28;20034;-75
2023/01/13 08:54:11;;;;;;;2.72;0.40;;;9.60;99.90;;;;;;4973971;28;20039;-76
2023/01/13 08:56:37;;;;;;;2.20;0.43;;;9.60;99.90;;;;;;4956501;28;20031;-76
2023/01/13 08:59:03;;;;;;;1.73;0.50;;;9.60;99.90;;;;;;4974170;28;20027;-75
2023/01/13 09:01:29;;;;;;;4.55;0.15;;;9.60;99.90;;;;;;4954351;28;20033;-76
2023/01/13 09:03:55;;;;;;;4.00;0.57;;;9.60;99.90;;;;;;4955968;28;20156;-77
2023/01/13 09:06:21;;;;;;;2.97;0.45;;;9.60;99.90;;;;;;4972842;28;20105;-75
2023/01/13 09:08:46;;;;;;;2.17;0.40;;;9.60;99.90;;;;;;4973342;28;20042;-77
2023/01/13 09:14:04;;;;;;;1.08;0.45;;;9.60;99.90;;;;;;4958509;28;20466;-77
2023/01/13 09:16:29;;;;;;;2.22;0.88;;;9.60;99.90;;;;;;4972455;28;20117;-77
2023/01/13 09:18:55;;;;;;;0.50;0.10;;;9.70;99.90;;;;;;4956001;28;20369;-76
2023/01/13 09:21:21;;;;;;;3.70;0.60;;;9.70;99.90;;;;;;4972877;28;20113;-76
2023/01/13 09:23:47;;;;;;;0.20;0.15;;;9.70;99.90;;;;;;4955749;28;20039;-77
2023/01/13 09:26:19;;;;;;;0.85;0.20;;;9.70;99.90;;;;;;4972188;28;20033;-76
2023/01/13 09:28:44;;;;;;;2.03;0.82;;;9.80;99.90;;;;;;4971666;28;20110;-76
2023/01/13 09:31:10;;;;;;;0.98;0.30;;;9.90;99.90;;;;;;4972709;28;20121;-77
2023/01/13 09:36:20;;;;;;;6.43;0.75;;;9.90;99.90;;;;;;4972182;28;20082;-77
2023/01/13 09:38:49;;;;;;;2.00;0.75;;;10.00;99.90;;;;;;4955685;28;20829;-77
2023/01/13 09:44:17;;;;;;;4.32;0.25;;;10.00;99.90;;;;;;4958351;28;20035;-79
2023/01/13 09:46:52;;;;;;;2.03;0.20;;;10.10;99.90;;;;;;4955469;28;20042;-78
2023/01/13 09:49:40;;;;;;;0.05;0.05;;;9.90;99.90;;;;;;4948561;28;20439;-78
2023/01/13 09:52:23;;;;;;;1.05;0.75;;;10.00;99.90;;;;;;4955370;28;20511;-78
2023/01/13 09:55:03;;;;;;;1.98;0.35;;;10.00;99.90;;;;;;4956722;28;20553;-78
2023/01/13 09:57:35;;;;;;;1.88;0.88;;;10.00;99.90;;;;;;4950971;28;20372;-79
2023/01/13 10:00:26;;;;;;;1.73;0.50;;;10.00;99.90;;;;;;4970680;28;20110;-80
2023/01/13 10:03:31;;;;;;;3.17;0.38;;;10.00;99.90;;;;;;4960339;28;20137;-80
2023/01/13 10:06:09;;;;;;;0.30;0.10;;;10.00;99.90;;;;;;4911675;29;20044;-79
2023/01/13 10:08:39;;;;;;;4.22;0.40;;;10.10;99.90;;;;;;4895901;29;20162;-79
2023/01/13 10:14:50;;;;;;;0.32;0.20;;;10.10;99.90;;;;;;4896092;29;20522;-78
2023/01/13 10:17:32;;;;;;;1.85;0.40;;;10.20;99.90;;;;;;4893498;29;20055;-77
2023/01/13 10:20:44;;;;;;;5.28;0.43;;;10.20;99.90;;;;;;4911446;29;20035;-77
2023/01/13 10:23:33;;;;;;;1.02;0.50;;;10.20;99.90;;;;;;4911440;29;20094;-77
2023/01/13 10:26:33;;;;;;;2.10;0.63;;;10.30;99.90;;;;;;4910002;29;20036;-77
2023/01/13 10:28:59;;;;;;;1.20;0.73;;;10.30;99.90;;;;;;4895810;29;20028;-78
2023/01/13 10:31:25;;;;;;;0.50;0.35;;;10.30;99.90;;;;;;4911025;29;20786;-77
2023/01/13 10:34:05;;;;;;;1.90;0.73;;;10.30;99.90;;;;;;4911439;29;20047;-76
2023/01/13 10:36:31;;;;;;;3.90;0.47;;;10.40;99.90;;;;;;4933272;28;20089;-77
2023/01/13 10:39:14;;;;;;;0.90;0.35;;;10.50;99.90;;;;;;4970321;28;20027;-78
2023/01/13 10:41:40;;;;;;;4.25;0.47;;;10.60;99.90;;;;;;4969703;28;20022;-78
2023/01/13 10:44:15;;;;;;;10.55;1.20;;;10.50;99.90;;;;;;4969990;28;20034;-77
2023/01/13 10:46:58;;;;;;;2.40;0.32;;;10.50;99.90;;;;;;4970285;28;20399;-77
2023/01/13 10:49:37;;;;;;;2.30;0.32;;;10.50;99.90;;;;;;4970187;28;20110;-76
2023/01/13 10:52:24;;;;;;;2.78;0.45;;;10.50;99.90;;;;;;4971037;28;20071;-77
2023/01/13 10:54:52;;;;;;;0.63;0.25;;;10.50;99.90;;;;;;4954727;28;20026;-77
2023/01/13 10:57:22;;;;;;;4.13;0.70;;;10.40;99.90;;;;;;4953615;28;20121;-77
2023/01/13 10:59:49;;;;;;;2.75;0.20;;;10.40;99.90;;;;;;4971558;28;20035;-76
2023/01/13 11:02:17;;;;;;;0.65;0.35;;;10.40;99.90;;;;;;4969924;28;20057;-78
2023/01/13 11:05:01;;;;;;;13.93;1.17;;;10.30;99.90;;;;;;4970806;28;20035;-76
2023/01/13 11:07:34;;;;;;;0.68;0.40;;;10.40;99.90;;;;;;4938446;28;20043;-77
2023/01/13 11:10:15;;;;;;;5.35;1.05;;;10.40;99.90;;;;;;4971486;28;20077;-79
2023/01/13 11:13:08;;;;;;;;;;;10.40;99.90;;;;;;4971329;28;20050;-75
2023/01/13 11:15:53;;;;;;;3.75;0.65;;;10.40;99.90;;;;;;4964394;28;20387;-74
2023/01/13 11:18:50;;;;;;;3.30;0.22;;;10.80;99.90;;;;;;4970237;28;20041;-76
2023/01/13 11:21:32;;;;;;;4.65;1.00;;;11.10;99.90;;;;;;4942371;28;20034;-76
2023/01/13 11:24:22;;;;;;;2.22;0.65;;;11.00;99.90;;;;;;4958481;28;20066;-76
2023/01/13 11:27:35;;;;;;;10.95;1.20;;;11.60;99.90;;;;;;4972290;28;20190;-70
2023/01/13 11:30:19;;;;;;;2.90;0.85;;;12.70;99.90;;;;;;4965121;28;20149;-71
2023/01/13 11:33:12;;;;;;;0.82;0.20;;;12.70;99.90;;;;;;4971172;28;20376;-70
2023/01/13 11:35:48;;;;;;;3.58;0.45;;;12.60;99.90;;;;;;4970796;28;20113;-70
2023/01/13 11:38:31;;;;;;;3.17;0.73;;;12.90;99.90;;;;;;4953360;28;20483;-72
2023/01/13 11:41:11;;;;;;;4.38;0.52;;;12.80;99.90;;;;;;4970646;28;20417;-69
2023/01/13 11:44:09;;;;;;;2.58;0.90;;;12.90;99.90;;;;;;4954901;28;20451;-70
2023/01/13 11:46:35;;;;;;;1.30;0.47;;;13.10;99.90;;;;;;4953508;28;20031;-72
2023/01/13 11:49:03;;;;;;;1.27;0.45;;;12.90;99.90;;;;;;4953713;28;20066;-70
2023/01/13 11:51:45;;;;;;;4.85;0.75;;;13.00;99.90;;;;;;4969461;28;20042;-76
2023/01/13 11:54:47;;;;;;;0.95;0.25;;;12.70;99.90;;;;;;4954804;28;20035;-76
2023/01/13 11:57:54;;;;;;;3.58;0.95;;;12.90;99.90;;;;;;4955422;28;20105;-74
2023/01/13 12:00:35;;;;;;;3.88;0.70;;;13.20;99.90;;;;;;4955279;28;20106;-74
2023/01/13 12:03:34;;;;;;;7.55;0.20;;;13.20;99.90;;;;;;4970806;28;20034;-76
2023/01/13 12:06:34;;;;;;;3.25;0.45;;;13.20;99.90;;;;;;4970616;28;20041;-76
2023/01/13 12:09:13;;;;;;;8.25;1.23;;;13.40;99.90;;;;;;4971104;28;20177;-74
2023/01/13 12:15:16;;;;;;;4.60;0.88;;;12.80;99.90;;;;;;4970039;28;20026;-74
2023/01/13 12:18:05;;;;;;;6.22;0.80;;;11.90;99.90;;;;;;4949594;28;20685;-75
2023/01/13 12:20:38;;;;;;;8.38;1.00;;;11.30;99.90;;;;;;4954905;28;20346;-75
2023/01/13 12:23:29;;;;;;;8.50;0.80;;;11.20;99.90;;;;;;4974636;28;20023;-75
2023/01/13 12:26:09;;;;;;;5.53;0.50;;;11.00;99.90;;;;;;4973669;28;20031;-75
2023/01/13 12:29:11;;;;;;;0.40;0.30;;;11.10;99.90;;;;;;4941920;28;20030;-76
2023/01/13 12:31:40;;;;;;;3.28;0.95;;;10.90;99.90;;;;;;4957869;28;20045;-76
2023/01/13 12:34:41;;;;;;;1.58;0.73;;;11.00;99.90;;;;;;4956388;28;20113;-75
2023/01/13 12:37:36;;;;;;;5.45;0.47;;;11.50;99.90;;;;;;4943253;28;20505;-76
2023/01/13 12:40:14;;;;;;;0.22;0.17;;;12.20;99.90;;;;;;4972866;28;20049;-74
2023/01/13 12:45:32;;;;;;;4.47;0.57;;;12.50;99.90;;;;;;4958923;28;20476;-75
2023/01/13 12:47:59;;;;;;;3.67;0.43;;;12.50;99.90;;;;;;4974021;28;20038;-75
2023/01/13 12:50:25;;;;;;;2.30;0.43;;;12.70;99.90;;;;;;4956032;28;20045;-74
2023/01/13 12:53:00;;;;;;;5.95;0.60;;;12.60;99.90;;;;;;4970685;28;20110;-75
2023/01/13 12:55:29;;;;;;;5.05;0.52;;;12.20;99.90;;;;;;4955872;28;20039;-75
2023/01/13 12:58:04;;;;;;;1.45;0.50;;;11.70;99.90;;;;;;4959157;28;20042;-74
2023/01/13 13:00:39;;;;;;;2.60;0.70;;;11.90;99.90;;;;;;4973266;28;20118;-74
2023/01/13 13:03:11;;;;;;;0.40;0.20;;;12.00;99.90;;;;;;4973615;28;20552;-75
2023/01/13 13:05:46;;;;;;;3.47;0.47;;;12.20;99.90;;;;;;4973327;28;20031;-71
2023/01/13 13:09:03;;;;;;;3.97;0.98;;;12.30;99.90;;;;;;4973138;28;20055;-76
2023/01/13 13:14:40;;;;;;;3.00;0.60;;;12.10;99.90;;;;;;4957757;28;20031;-78
2023/01/13 13:17:27;;;;;;;2.60;0.77;;;12.30;99.90;;;;;;4955944;28;20045;-78
2023/01/13 13:19:55;;;;;;;3.63;1.52;;;12.30;99.90;;;;;;4972512;28;20042;-78
2023/01/13 13:22:41;;;;;;;16.85;1.73;;;12.20;99.90;;;;;;4956406;28;20038;-84
2023/01/13 13:25:21;;;;;;;0.50;0.20;;;11.90;99.90;;;;;;4972533;28;20503;-77
2023/01/13 13:28:16;;;;;;;6.22;0.50;;;12.00;99.90;;;;;;4972150;28;20045;-78
2023/01/13 13:31:00;;;;;;;1.55;0.17;;;11.90;99.90;;;;;;4955978;28;20097;-77
2023/01/13 13:33:45;;;;;;;0.95;0.75;;;11.10;99.90;;;;;;4958340;23;20054;-79
2023/01/13 13:37:20;;;;;;;3.70;0.65;;;10.80;99.90;;;;;;4974071;28;20065;-81
2023/01/13 13:48:23;;;;;;;3.08;0.60;;;10.70;99.90;;;;;;4972041;28;20041;-74
2023/01/13 13:51:00;;;;;;;0.90;0.50;;;10.50;99.90;;;;;;4962345;28;20030;-75
2023/01/13 13:53:32;;;;;;;1.48;0.57;;;10.30;99.90;;;;;;4954379;28;20027;-75
2023/01/13 13:56:00;;;;;;;0.85;0.38;;;10.30;99.90;;;;;;4963435;28;20039;-77
2023/01/13 13:58:34;;;;;;;1.55;0.32;;;10.20;99.90;;;;;;4971660;28;20026;-74
2023/01/13 14:01:00;;;;;;;1.40;0.65;;;10.30;99.90;;;;;;4949703;28;20027;-72
2023/01/13 14:03:31;;;;;;;0.40;0.25;;;10.20;99.90;;;;;;4954933;28;20325;-73
2023/01/13 14:06:04;;;;;;;4.78;0.73;;;10.00;99.90;;;;;;4972072;28;20034;-72
2023/01/13 14:08:38;;;;;;;0.75;0.30;;;10.00;99.90;;;;;;4968850;28;20052;-73
2023/01/13 14:11:25;;;;;;;4.75;0.40;;;9.80;99.90;;;;;;4971728;28;20685;-74
2023/01/13 14:14:13;;;;;;;0.95;0.43;;;9.80;99.90;;;;;;4971735;28;20035;-74
2023/01/13 14:16:40;;;;;;;6.47;1.95;;;9.80;99.90;;;;;;4962503;28;20023;-74
2023/01/13 14:19:23;;;;;;;4.18;0.50;;;9.80;99.90;;;;;;4962489;28;20061;-74
2023/01/13 14:21:49;;;;;;;0.38;0.30;;;9.80;99.90;;;;;;4949137;28;20022;-74
2023/01/13 14:24:19;;;;;;;4.03;0.40;;;9.70;99.90;;;;;;4954619;28;20042;-74
2023/01/13 14:26:50;;;;;;;3.85;0.50;;;9.90;99.90;;;;;;4970598;28;20479;-74
2023/01/13 14:29:22;;;;;;;;;;;10.20;99.90;;;;;;4972342;28;20490;-73